sensor_id;sensor_type;location;lat;lon;timestamp;P1;durP1;ratioP1;P2;durP2;ratioP2
4353;SDS011;11018;51.258;6.806;2023-04-15T00:00:03;12.25;;;6.93;;
4353;SDS011;11018;51.258;6.806;2023-04-15T00:02:29;17.20;;;7.90;;
4353;SDS011;11018;51.258;6.806;2023-04-15T00:04:55;14.38;;;7.53;;
4353;SDS011;11018;51.258;6.806;2023-04-15T00:07:20;15.85;;;7.57;;
4353;SDS011;11018;51.258;6.806;2023-04-15T00:09:46;19.38;;;8.50;;
4353;SDS011;11018;51.258;6.806;2023-04-15T00:12:11;15.38;;;8.00;;
4353;SDS011;11018;51.258;6.806;2023-04-15T00:14:37;19.30;;;7.95;;
4353;SDS011;11018;51.258;6.806;2023-04-15T00:17:03;15.60;;;8.00;;
4353;SDS011;11018;51.258;6.806;2023-04-15T00:19:29;14.13;;;7.70;;
4353;SDS011;11018;51.258;6.806;2023-04-15T00:21:55;17.88;;;8.02;;
4353;SDS011;11018;51.258;6.806;2023-04-15T00:24:21;13.10;;;8.53;;
4353;SDS011;11018;51.258;6.806;2023-04-15T00:26:47;12.27;;;8.40;;
4353;SDS011;11018;51.258;6.806;2023-04-15T00:29:13;18.23;;;8.80;;
4353;SDS011;11018;51.258;6.806;2023-04-15T00:31:39;18.30;;;9.10;;
4353;SDS011;11018;51.258;6.806;2023-04-15T00:34:06;16.67;;;8.85;;
4353;SDS011;11018;51.258;6.806;2023-04-15T00:36:31;12.65;;;7.93;;
4353;SDS011;11018;51.258;6.806;2023-04-15T00:38:58;15.60;;;9.00;;
4353;SDS011;11018;51.258;6.806;2023-04-15T00:41:24;17.00;;;9.00;;
4353;SDS011;11018;51.258;6.806;2023-04-15T00:43:50;19.30;;;8.40;;
4353;SDS011;11018;51.258;6.806;2023-04-15T00:46:16;15.70;;;8.60;;
4353;SDS011;11018;51.258;6.806;2023-04-15T00:48:45;14.00;;;8.33;;
4353;SDS011;11018;51.258;6.806;2023-04-15T00:51:11;19.65;;;9.18;;
4353;SDS011;11018;51.258;6.806;2023-04-15T00:53:37;17.92;;;8.80;;
4353;SDS011;11018;51.258;6.806;2023-04-15T00:56:03;17.60;;;9.00;;
4353;SDS011;11018;51.258;6.806;2023-04-15T00:58:29;18.45;;;8.80;;
4353;SDS011;11018;51.258;6.806;2023-04-15T01:00:55;17.05;;;8.68;;
4353;SDS011;11018;51.258;6.806;2023-04-15T01:03:21;18.95;;;8.65;;
4353;SDS011;11018;51.258;6.806;2023-04-15T01:05:47;14.35;;;8.25;;
4353;SDS011;11018;51.258;6.806;2023-04-15T01:08:13;15.57;;;8.20;;
4353;SDS011;11018;51.258;6.806;2023-04-15T01:10:39;18.67;;;8.67;;
4353;SDS011;11018;51.258;6.806;2023-04-15T01:13:04;16.17;;;8.60;;
4353;SDS011;11018;51.258;6.806;2023-04-15T01:15:30;15.77;;;8.70;;
4353;SDS011;11018;51.258;6.806;2023-04-15T01:18:00;14.00;;;8.50;;
4353;SDS011;11018;51.258;6.806;2023-04-15T01:20:27;16.10;;;9.05;;
4353;SDS011;11018;51.258;6.806;2023-04-15T01:22:53;18.35;;;9.68;;
4353;SDS011;11018;51.258;6.806;2023-04-15T01:25:27;14.80;;;8.30;;
4353;SDS011;11018;51.258;6.806;2023-04-15T01:27:57;16.17;;;8.65;;
4353;SDS011;11018;51.258;6.806;2023-04-15T01:30:23;15.98;;;8.93;;
4353;SDS011;11018;51.258;6.806;2023-04-15T01:32:50;15.85;;;7.65;;
4353;SDS011;11018;51.258;6.806;2023-04-15T01:35:16;14.00;;;7.85;;
4353;SDS011;11018;51.258;6.806;2023-04-15T01:37:42;14.95;;;7.93;;
4353;SDS011;11018;51.258;6.806;2023-04-15T01:40:08;15.38;;;7.70;;
4353;SDS011;11018;51.258;6.806;2023-04-15T01:42:35;17.90;;;8.73;;
4353;SDS011;11018;51.258;6.806;2023-04-15T01:45:01;15.45;;;9.23;;
4353;SDS011;11018;51.258;6.806;2023-04-15T01:47:27;13.82;;;9.18;;
4353;SDS011;11018;51.258;6.806;2023-04-15T01:49:53;19.50;;;9.30;;
4353;SDS011;11018;51.258;6.806;2023-04-15T01:52:18;16.92;;;10.18;;
4353;SDS011;11018;51.258;6.806;2023-04-15T01:54:44;15.55;;;7.80;;
4353;SDS011;11018;51.258;6.806;2023-04-15T01:57:10;20.37;;;8.50;;
4353;SDS011;11018;51.258;6.806;2023-04-15T01:59:36;17.08;;;7.90;;
4353;SDS011;11018;51.258;6.806;2023-04-15T02:02:02;15.40;;;8.00;;
4353;SDS011;11018;51.258;6.806;2023-04-15T02:04:28;16.38;;;8.50;;
4353;SDS011;11018;51.258;6.806;2023-04-15T02:06:54;16.85;;;9.00;;
4353;SDS011;11018;51.258;6.806;2023-04-15T02:09:19;20.48;;;8.93;;
4353;SDS011;11018;51.258;6.806;2023-04-15T02:11:45;14.70;;;8.80;;
4353;SDS011;11018;51.258;6.806;2023-04-15T02:14:10;14.40;;;8.80;;
4353;SDS011;11018;51.258;6.806;2023-04-15T02:16:36;15.60;;;8.13;;
4353;SDS011;11018;51.258;6.806;2023-04-15T02:19:02;14.43;;;8.60;;
4353;SDS011;11018;51.258;6.806;2023-04-15T02:21:28;14.75;;;8.75;;
4353;SDS011;11018;51.258;6.806;2023-04-15T02:23:54;14.90;;;8.47;;
4353;SDS011;11018;51.258;6.806;2023-04-15T02:26:20;13.93;;;8.40;;
4353;SDS011;11018;51.258;6.806;2023-04-15T02:28:46;17.70;;;9.45;;
4353;SDS011;11018;51.258;6.806;2023-04-15T02:31:12;18.55;;;9.35;;
4353;SDS011;11018;51.258;6.806;2023-04-15T02:33:38;15.57;;;8.87;;
4353;SDS011;11018;51.258;6.806;2023-04-15T02:36:04;15.00;;;8.50;;
4353;SDS011;11018;51.258;6.806;2023-04-15T02:38:30;18.70;;;9.30;;
4353;SDS011;11018;51.258;6.806;2023-04-15T02:40:56;14.35;;;8.82;;
4353;SDS011;11018;51.258;6.806;2023-04-15T02:43:22;17.55;;;8.63;;
4353;SDS011;11018;51.258;6.806;2023-04-15T02:45:47;12.38;;;8.20;;
4353;SDS011;11018;51.258;6.806;2023-04-15T02:48:13;16.83;;;8.70;;
4353;SDS011;11018;51.258;6.806;2023-04-15T02:50:40;21.40;;;9.80;;
4353;SDS011;11018;51.258;6.806;2023-04-15T02:53:06;22.00;;;9.50;;
4353;SDS011;11018;51.258;6.806;2023-04-15T02:55:31;21.50;;;9.90;;
4353;SDS011;11018;51.258;6.806;2023-04-15T02:57:57;17.50;;;10.07;;
4353;SDS011;11018;51.258;6.806;2023-04-15T03:00:24;16.90;;;9.95;;
4353;SDS011;11018;51.258;6.806;2023-04-15T03:02:50;16.67;;;9.20;;
4353;SDS011;11018;51.258;6.806;2023-04-15T03:05:20;16.55;;;9.68;;
4353;SDS011;11018;51.258;6.806;2023-04-15T03:07:48;15.32;;;9.75;;
4353;SDS011;11018;51.258;6.806;2023-04-15T03:10:14;16.27;;;9.80;;
4353;SDS011;11018;51.258;6.806;2023-04-15T03:12:39;17.13;;;9.80;;
4353;SDS011;11018;51.258;6.806;2023-04-15T03:15:05;17.53;;;10.30;;
4353;SDS011;11018;51.258;6.806;2023-04-15T03:17:32;17.50;;;9.40;;
4353;SDS011;11018;51.258;6.806;2023-04-15T03:19:57;20.15;;;9.90;;
4353;SDS011;11018;51.258;6.806;2023-04-15T03:22:23;13.80;;;8.90;;
4353;SDS011;11018;51.258;6.806;2023-04-15T03:24:49;15.70;;;9.10;;
4353;SDS011;11018;51.258;6.806;2023-04-15T03:27:14;17.20;;;10.07;;
4353;SDS011;11018;51.258;6.806;2023-04-15T03:29:40;20.80;;;9.90;;
4353;SDS011;11018;51.258;6.806;2023-04-15T03:32:07;15.98;;;9.02;;
4353;SDS011;11018;51.258;6.806;2023-04-15T03:34:33;14.40;;;9.30;;
4353;SDS011;11018;51.258;6.806;2023-04-15T03:36:58;14.50;;;9.70;;
4353;SDS011;11018;51.258;6.806;2023-04-15T03:39:24;15.17;;;9.63;;
4353;SDS011;11018;51.258;6.806;2023-04-15T03:41:50;18.90;;;9.23;;
4353;SDS011;11018;51.258;6.806;2023-04-15T03:44:15;16.77;;;9.63;;
4353;SDS011;11018;51.258;6.806;2023-04-15T03:46:41;16.40;;;10.60;;
4353;SDS011;11018;51.258;6.806;2023-04-15T03:49:06;15.77;;;9.30;;
4353;SDS011;11018;51.258;6.806;2023-04-15T03:51:32;13.93;;;8.88;;
4353;SDS011;11018;51.258;6.806;2023-04-15T03:53:57;15.93;;;9.30;;
4353;SDS011;11018;51.258;6.806;2023-04-15T03:56:23;17.00;;;9.43;;
4353;SDS011;11018;51.258;6.806;2023-04-15T03:58:49;16.45;;;8.27;;
4353;SDS011;11018;51.258;6.806;2023-04-15T04:01:14;19.03;;;9.60;;
4353;SDS011;11018;51.258;6.806;2023-04-15T04:03:40;15.10;;;9.20;;
4353;SDS011;11018;51.258;6.806;2023-04-15T04:06:06;18.30;;;9.38;;
4353;SDS011;11018;51.258;6.806;2023-04-15T04:08:32;14.52;;;9.73;;
4353;SDS011;11018;51.258;6.806;2023-04-15T04:10:58;14.20;;;9.97;;
4353;SDS011;11018;51.258;6.806;2023-04-15T04:13:23;14.50;;;9.27;;
4353;SDS011;11018;51.258;6.806;2023-04-15T04:15:49;17.47;;;10.40;;
4353;SDS011;11018;51.258;6.806;2023-04-15T04:18:14;15.77;;;9.50;;
4353;SDS011;11018;51.258;6.806;2023-04-15T04:20:40;16.67;;;10.27;;
4353;SDS011;11018;51.258;6.806;2023-04-15T04:23:06;20.55;;;10.45;;
4353;SDS011;11018;51.258;6.806;2023-04-15T04:25:31;16.60;;;9.30;;
4353;SDS011;11018;51.258;6.806;2023-04-15T04:27:57;21.50;;;9.93;;
4353;SDS011;11018;51.258;6.806;2023-04-15T04:30:23;20.45;;;10.00;;
4353;SDS011;11018;51.258;6.806;2023-04-15T04:32:49;17.60;;;9.63;;
4353;SDS011;11018;51.258;6.806;2023-04-15T04:35:15;13.48;;;9.68;;
4353;SDS011;11018;51.258;6.806;2023-04-15T04:37:41;16.05;;;10.00;;
4353;SDS011;11018;51.258;6.806;2023-04-15T04:40:07;17.25;;;9.85;;
4353;SDS011;11018;51.258;6.806;2023-04-15T04:42:33;18.40;;;9.75;;
4353;SDS011;11018;51.258;6.806;2023-04-15T04:44:59;15.48;;;10.80;;
4353;SDS011;11018;51.258;6.806;2023-04-15T04:47:24;15.97;;;9.80;;
4353;SDS011;11018;51.258;6.806;2023-04-15T04:49:50;17.80;;;10.90;;
4353;SDS011;11018;51.258;6.806;2023-04-15T04:52:15;21.40;;;11.17;;
4353;SDS011;11018;51.258;6.806;2023-04-15T04:54:41;18.03;;;11.00;;
4353;SDS011;11018;51.258;6.806;2023-04-15T04:57:06;21.17;;;10.87;;
4353;SDS011;11018;51.258;6.806;2023-04-15T04:59:32;23.03;;;11.50;;
4353;SDS011;11018;51.258;6.806;2023-04-15T05:01:58;18.53;;;10.43;;
4353;SDS011;11018;51.258;6.806;2023-04-15T05:04:23;21.20;;;10.90;;
4353;SDS011;11018;51.258;6.806;2023-04-15T05:06:50;19.55;;;10.98;;
4353;SDS011;11018;51.258;6.806;2023-04-15T05:09:15;19.13;;;11.27;;
4353;SDS011;11018;51.258;6.806;2023-04-15T05:11:41;20.27;;;10.80;;
4353;SDS011;11018;51.258;6.806;2023-04-15T05:14:06;15.67;;;10.97;;
4353;SDS011;11018;51.258;6.806;2023-04-15T05:16:32;17.63;;;11.40;;
4353;SDS011;11018;51.258;6.806;2023-04-15T05:18:57;20.93;;;11.47;;
4353;SDS011;11018;51.258;6.806;2023-04-15T05:21:23;24.70;;;11.40;;
4353;SDS011;11018;51.258;6.806;2023-04-15T05:23:49;17.10;;;11.25;;
4353;SDS011;11018;51.258;6.806;2023-04-15T05:26:15;17.27;;;11.50;;
4353;SDS011;11018;51.258;6.806;2023-04-15T05:28:41;21.90;;;12.90;;
4353;SDS011;11018;51.258;6.806;2023-04-15T05:31:07;22.83;;;12.20;;
4353;SDS011;11018;51.258;6.806;2023-04-15T05:33:32;21.73;;;12.60;;
4353;SDS011;11018;51.258;6.806;2023-04-15T05:35:58;23.97;;;12.40;;
4353;SDS011;11018;51.258;6.806;2023-04-15T05:38:24;21.50;;;12.80;;
4353;SDS011;11018;51.258;6.806;2023-04-15T05:40:50;21.30;;;12.57;;
4353;SDS011;11018;51.258;6.806;2023-04-15T05:43:15;19.92;;;12.77;;
4353;SDS011;11018;51.258;6.806;2023-04-15T05:45:41;18.00;;;12.77;;
4353;SDS011;11018;51.258;6.806;2023-04-15T05:48:06;23.02;;;12.65;;
4353;SDS011;11018;51.258;6.806;2023-04-15T05:50:32;24.48;;;12.90;;
4353;SDS011;11018;51.258;6.806;2023-04-15T05:52:58;22.42;;;13.15;;
4353;SDS011;11018;51.258;6.806;2023-04-15T05:55:24;20.65;;;12.75;;
4353;SDS011;11018;51.258;6.806;2023-04-15T05:57:49;20.23;;;13.10;;
4353;SDS011;11018;51.258;6.806;2023-04-15T06:00:15;25.00;;;13.90;;
4353;SDS011;11018;51.258;6.806;2023-04-15T06:02:40;21.10;;;13.80;;
4353;SDS011;11018;51.258;6.806;2023-04-15T06:05:06;18.70;;;13.00;;
4353;SDS011;11018;51.258;6.806;2023-04-15T06:07:36;23.27;;;14.40;;
4353;SDS011;11018;51.258;6.806;2023-04-15T06:10:02;24.27;;;15.02;;
4353;SDS011;11018;51.258;6.806;2023-04-15T06:12:28;25.88;;;14.60;;
4353;SDS011;11018;51.258;6.806;2023-04-15T06:14:54;24.50;;;14.87;;
4353;SDS011;11018;51.258;6.806;2023-04-15T06:17:20;25.23;;;16.00;;
4353;SDS011;11018;51.258;6.806;2023-04-15T06:19:46;28.13;;;16.13;;
4353;SDS011;11018;51.258;6.806;2023-04-15T06:22:11;21.38;;;15.73;;
4353;SDS011;11018;51.258;6.806;2023-04-15T06:24:37;22.65;;;15.07;;
4353;SDS011;11018;51.258;6.806;2023-04-15T06:27:02;28.90;;;15.80;;
4353;SDS011;11018;51.258;6.806;2023-04-15T06:29:28;26.30;;;15.35;;
4353;SDS011;11018;51.258;6.806;2023-04-15T06:31:53;20.00;;;14.75;;
4353;SDS011;11018;51.258;6.806;2023-04-15T06:34:20;22.50;;;14.70;;
4353;SDS011;11018;51.258;6.806;2023-04-15T06:36:46;21.08;;;15.10;;
4353;SDS011;11018;51.258;6.806;2023-04-15T06:39:12;21.42;;;13.90;;
4353;SDS011;11018;51.258;6.806;2023-04-15T06:41:37;25.40;;;13.93;;
4353;SDS011;11018;51.258;6.806;2023-04-15T06:44:03;21.20;;;13.40;;
4353;SDS011;11018;51.258;6.806;2023-04-15T06:46:29;21.85;;;14.00;;
4353;SDS011;11018;51.258;6.806;2023-04-15T06:48:55;21.55;;;12.43;;
4353;SDS011;11018;51.258;6.806;2023-04-15T06:51:21;19.33;;;12.68;;
4353;SDS011;11018;51.258;6.806;2023-04-15T06:53:48;16.67;;;12.48;;
4353;SDS011;11018;51.258;6.806;2023-04-15T06:56:13;16.80;;;12.30;;
4353;SDS011;11018;51.258;6.806;2023-04-15T06:58:39;18.33;;;12.87;;
4353;SDS011;11018;51.258;6.806;2023-04-15T07:01:04;16.60;;;11.60;;
4353;SDS011;11018;51.258;6.806;2023-04-15T07:03:30;16.33;;;11.60;;
4353;SDS011;11018;51.258;6.806;2023-04-15T07:05:56;17.20;;;11.55;;
4353;SDS011;11018;51.258;6.806;2023-04-15T07:08:22;19.17;;;12.50;;
4353;SDS011;11018;51.258;6.806;2023-04-15T07:10:48;21.63;;;11.57;;
4353;SDS011;11018;51.258;6.806;2023-04-15T07:13:14;14.25;;;10.45;;
4353;SDS011;11018;51.258;6.806;2023-04-15T07:15:39;17.23;;;10.30;;
4353;SDS011;11018;51.258;6.806;2023-04-15T07:18:05;16.23;;;11.10;;
4353;SDS011;11018;51.258;6.806;2023-04-15T07:20:30;19.50;;;11.93;;
4353;SDS011;11018;51.258;6.806;2023-04-15T07:22:56;19.73;;;12.60;;
4353;SDS011;11018;51.258;6.806;2023-04-15T07:25:22;16.60;;;12.10;;
4353;SDS011;11018;51.258;6.806;2023-04-15T07:27:47;16.02;;;11.20;;
4353;SDS011;11018;51.258;6.806;2023-04-15T07:30:13;17.45;;;10.80;;
4353;SDS011;11018;51.258;6.806;2023-04-15T07:32:39;14.80;;;10.70;;
4353;SDS011;11018;51.258;6.806;2023-04-15T07:35:05;17.25;;;10.52;;
4353;SDS011;11018;51.258;6.806;2023-04-15T07:37:31;15.02;;;10.40;;
4353;SDS011;11018;51.258;6.806;2023-04-15T07:39:57;18.05;;;11.55;;
4353;SDS011;11018;51.258;6.806;2023-04-15T07:42:23;19.00;;;11.30;;
4353;SDS011;11018;51.258;6.806;2023-04-15T07:44:48;13.15;;;9.75;;
4353;SDS011;11018;51.258;6.806;2023-04-15T07:47:14;25.08;;;13.38;;
4353;SDS011;11018;51.258;6.806;2023-04-15T07:49:40;14.87;;;10.00;;
4353;SDS011;11018;51.258;6.806;2023-04-15T07:52:07;12.73;;;8.43;;
4353;SDS011;11018;51.258;6.806;2023-04-15T07:54:32;13.73;;;7.97;;
4353;SDS011;11018;51.258;6.806;2023-04-15T07:56:58;11.67;;;8.57;;
4353;SDS011;11018;51.258;6.806;2023-04-15T07:59:24;11.13;;;7.28;;
4353;SDS011;11018;51.258;6.806;2023-04-15T08:01:51;10.85;;;7.30;;
4353;SDS011;11018;51.258;6.806;2023-04-15T08:04:17;11.68;;;8.30;;
4353;SDS011;11018;51.258;6.806;2023-04-15T08:06:42;17.73;;;9.23;;
4353;SDS011;11018;51.258;6.806;2023-04-15T08:09:08;12.10;;;8.50;;
4353;SDS011;11018;51.258;6.806;2023-04-15T08:11:34;17.83;;;11.27;;
4353;SDS011;11018;51.258;6.806;2023-04-15T08:14:00;15.40;;;9.20;;
4353;SDS011;11018;51.258;6.806;2023-04-15T08:16:26;14.80;;;9.00;;
4353;SDS011;11018;51.258;6.806;2023-04-15T08:18:52;9.70;;;7.10;;
4353;SDS011;11018;51.258;6.806;2023-04-15T08:21:19;10.68;;;7.65;;
4353;SDS011;11018;51.258;6.806;2023-04-15T08:23:45;10.23;;;7.30;;
4353;SDS011;11018;51.258;6.806;2023-04-15T08:26:13;10.60;;;7.53;;
4353;SDS011;11018;51.258;6.806;2023-04-15T08:28:39;10.68;;;7.78;;
4353;SDS011;11018;51.258;6.806;2023-04-15T08:31:05;11.20;;;7.80;;
4353;SDS011;11018;51.258;6.806;2023-04-15T08:33:31;9.70;;;7.07;;
4353;SDS011;11018;51.258;6.806;2023-04-15T08:35:57;7.60;;;6.00;;
4353;SDS011;11018;51.258;6.806;2023-04-15T08:38:23;11.40;;;6.40;;
4353;SDS011;11018;51.258;6.806;2023-04-15T08:40:48;11.27;;;6.97;;
4353;SDS011;11018;51.258;6.806;2023-04-15T08:43:18;10.02;;;7.28;;
4353;SDS011;11018;51.258;6.806;2023-04-15T08:45:52;9.43;;;6.95;;
4353;SDS011;11018;51.258;6.806;2023-04-15T08:48:19;10.43;;;7.80;;
4353;SDS011;11018;51.258;6.806;2023-04-15T08:50:47;9.20;;;7.03;;
4353;SDS011;11018;51.258;6.806;2023-04-15T08:53:13;11.32;;;7.00;;
4353;SDS011;11018;51.258;6.806;2023-04-15T08:55:43;10.73;;;7.60;;
4353;SDS011;11018;51.258;6.806;2023-04-15T08:58:10;10.55;;;7.10;;
4353;SDS011;11018;51.258;6.806;2023-04-15T09:00:37;11.90;;;7.03;;
4353;SDS011;11018;51.258;6.806;2023-04-15T09:03:05;9.60;;;8.10;;
4353;SDS011;11018;51.258;6.806;2023-04-15T09:05:32;11.93;;;7.50;;
4353;SDS011;11018;51.258;6.806;2023-04-15T09:07:58;14.43;;;8.95;;
4353;SDS011;11018;51.258;6.806;2023-04-15T09:10:24;11.23;;;7.20;;
4353;SDS011;11018;51.258;6.806;2023-04-15T09:12:50;10.00;;;7.20;;
4353;SDS011;11018;51.258;6.806;2023-04-15T09:15:15;10.70;;;7.60;;
4353;SDS011;11018;51.258;6.806;2023-04-15T09:17:44;10.30;;;7.20;;
4353;SDS011;11018;51.258;6.806;2023-04-15T09:20:11;10.15;;;6.95;;
4353;SDS011;11018;51.258;6.806;2023-04-15T09:22:39;10.02;;;7.35;;
4353;SDS011;11018;51.258;6.806;2023-04-15T09:27:47;5.30;;;4.10;;
4353;SDS011;11018;51.258;6.806;2023-04-15T09:30:13;4.00;;;3.17;;
4353;SDS011;11018;51.258;6.806;2023-04-15T09:32:55;5.32;;;3.80;;
4353;SDS011;11018;51.258;6.806;2023-04-15T09:35:23;3.95;;;3.38;;
4353;SDS011;11018;51.258;6.806;2023-04-15T09:37:50;5.00;;;2.90;;
4353;SDS011;11018;51.258;6.806;2023-04-15T09:43:05;5.13;;;3.55;;
4353;SDS011;11018;51.258;6.806;2023-04-15T09:45:32;5.50;;;3.70;;
4353;SDS011;11018;51.258;6.806;2023-04-15T09:47:59;3.75;;;3.45;;
4353;SDS011;11018;51.258;6.806;2023-04-15T09:50:50;6.30;;;3.85;;
4353;SDS011;11018;51.258;6.806;2023-04-15T09:53:21;3.70;;;2.90;;
4353;SDS011;11018;51.258;6.806;2023-04-15T09:58:21;6.00;;;3.60;;
4353;SDS011;11018;51.258;6.806;2023-04-15T10:00:49;4.28;;;3.50;;
4353;SDS011;11018;51.258;6.806;2023-04-15T10:03:22;4.70;;;3.80;;
4353;SDS011;11018;51.258;6.806;2023-04-15T10:05:50;6.40;;;3.70;;
4353;SDS011;11018;51.258;6.806;2023-04-15T10:08:17;5.50;;;3.90;;
4353;SDS011;11018;51.258;6.806;2023-04-15T10:10:45;6.00;;;3.87;;
4353;SDS011;11018;51.258;6.806;2023-04-15T10:13:15;5.03;;;4.38;;
4353;SDS011;11018;51.258;6.806;2023-04-15T10:15:49;5.63;;;4.20;;
4353;SDS011;11018;51.258;6.806;2023-04-15T10:18:37;4.97;;;4.47;;
4353;SDS011;11018;51.258;6.806;2023-04-15T10:21:11;7.50;;;5.22;;
4353;SDS011;11018;51.258;6.806;2023-04-15T10:23:39;7.78;;;7.05;;
4353;SDS011;11018;51.258;6.806;2023-04-15T10:26:05;8.75;;;7.20;;
4353;SDS011;11018;51.258;6.806;2023-04-15T10:28:31;10.63;;;6.63;;
4353;SDS011;11018;51.258;6.806;2023-04-15T10:30:57;7.13;;;6.30;;
4353;SDS011;11018;51.258;6.806;2023-04-15T10:33:23;8.02;;;5.90;;
4353;SDS011;11018;51.258;6.806;2023-04-15T10:35:49;8.85;;;6.47;;
4353;SDS011;11018;51.258;6.806;2023-04-15T10:41:18;6.35;;;5.75;;
4353;SDS011;11018;51.258;6.806;2023-04-15T10:43:52;6.00;;;5.40;;
4353;SDS011;11018;51.258;6.806;2023-04-15T10:46:21;9.48;;;5.32;;
4353;SDS011;11018;51.258;6.806;2023-04-15T10:48:50;5.38;;;4.88;;
4353;SDS011;11018;51.258;6.806;2023-04-15T10:51:29;5.82;;;4.65;;
4353;SDS011;11018;51.258;6.806;2023-04-15T10:53:56;5.47;;;4.70;;
4353;SDS011;11018;51.258;6.806;2023-04-15T10:56:27;6.95;;;5.15;;
4353;SDS011;11018;51.258;6.806;2023-04-15T10:58:53;7.37;;;5.37;;
4353;SDS011;11018;51.258;6.806;2023-04-15T11:01:19;6.25;;;5.30;;
4353;SDS011;11018;51.258;6.806;2023-04-15T11:03:47;7.25;;;5.28;;
4353;SDS011;11018;51.258;6.806;2023-04-15T11:06:13;4.72;;;3.83;;
4353;SDS011;11018;51.258;6.806;2023-04-15T11:08:57;7.20;;;4.00;;
4353;SDS011;11018;51.258;6.806;2023-04-15T11:12:08;3.85;;;3.40;;
4353;SDS011;11018;51.258;6.806;2023-04-15T11:14:36;4.40;;;4.00;;
4353;SDS011;11018;51.258;6.806;2023-04-15T11:17:05;4.80;;;3.88;;
4353;SDS011;11018;51.258;6.806;2023-04-15T11:19:37;5.10;;;4.00;;
4353;SDS011;11018;51.258;6.806;2023-04-15T11:22:09;4.40;;;3.90;;
4353;SDS011;11018;51.258;6.806;2023-04-15T11:24:35;5.53;;;4.30;;
4353;SDS011;11018;51.258;6.806;2023-04-15T11:27:18;4.90;;;4.43;;
4353;SDS011;11018;51.258;6.806;2023-04-15T11:29:47;6.32;;;4.45;;
4353;SDS011;11018;51.258;6.806;2023-04-15T11:32:13;5.50;;;4.57;;
4353;SDS011;11018;51.258;6.806;2023-04-15T11:34:38;7.72;;;5.40;;
4353;SDS011;11018;51.258;6.806;2023-04-15T11:37:04;8.02;;;5.72;;
4353;SDS011;11018;51.258;6.806;2023-04-15T11:39:30;8.38;;;6.10;;
4353;SDS011;11018;51.258;6.806;2023-04-15T11:41:56;8.97;;;5.50;;
4353;SDS011;11018;51.258;6.806;2023-04-15T11:44:22;9.30;;;6.00;;
4353;SDS011;11018;51.258;6.806;2023-04-15T11:46:47;7.30;;;4.80;;
4353;SDS011;11018;51.258;6.806;2023-04-15T11:49:25;7.60;;;4.70;;
4353;SDS011;11018;51.258;6.806;2023-04-15T11:51:55;5.70;;;4.90;;
4353;SDS011;11018;51.258;6.806;2023-04-15T11:54:20;5.70;;;4.60;;
4353;SDS011;11018;51.258;6.806;2023-04-15T11:56:50;5.37;;;4.20;;
4353;SDS011;11018;51.258;6.806;2023-04-15T11:59:16;5.35;;;4.40;;
4353;SDS011;11018;51.258;6.806;2023-04-15T12:01:42;5.30;;;4.30;;
4353;SDS011;11018;51.258;6.806;2023-04-15T12:04:10;6.25;;;4.97;;
4353;SDS011;11018;51.258;6.806;2023-04-15T12:06:37;6.38;;;4.75;;
4353;SDS011;11018;51.258;6.806;2023-04-15T12:09:06;5.75;;;4.60;;
4353;SDS011;11018;51.258;6.806;2023-04-15T12:11:36;6.93;;;5.22;;
4353;SDS011;11018;51.258;6.806;2023-04-15T12:16:45;7.38;;;5.10;;
4353;SDS011;11018;51.258;6.806;2023-04-15T12:19:40;4.95;;;4.00;;
4353;SDS011;11018;51.258;6.806;2023-04-15T12:22:11;5.45;;;4.13;;
4353;SDS011;11018;51.258;6.806;2023-04-15T12:24:38;8.13;;;4.47;;
4353;SDS011;11018;51.258;6.806;2023-04-15T12:27:05;5.50;;;4.60;;
4353;SDS011;11018;51.258;6.806;2023-04-15T12:29:31;7.03;;;5.03;;
4353;SDS011;11018;51.258;6.806;2023-04-15T12:32:03;6.83;;;4.10;;
4353;SDS011;11018;51.258;6.806;2023-04-15T12:37:01;5.57;;;4.30;;
4353;SDS011;11018;51.258;6.806;2023-04-15T12:39:29;6.13;;;4.25;;
4353;SDS011;11018;51.258;6.806;2023-04-15T12:41:56;4.87;;;3.80;;
4353;SDS011;11018;51.258;6.806;2023-04-15T12:44:24;4.00;;;3.53;;
4353;SDS011;11018;51.258;6.806;2023-04-15T12:46:50;5.78;;;3.85;;
4353;SDS011;11018;51.258;6.806;2023-04-15T12:49:22;9.30;;;5.40;;
4353;SDS011;11018;51.258;6.806;2023-04-15T12:51:48;9.57;;;6.50;;
4353;SDS011;11018;51.258;6.806;2023-04-15T12:54:18;11.75;;;6.55;;
4353;SDS011;11018;51.258;6.806;2023-04-15T12:56:45;7.78;;;5.95;;
4353;SDS011;11018;51.258;6.806;2023-04-15T12:59:12;8.80;;;5.63;;
4353;SDS011;11018;51.258;6.806;2023-04-15T13:01:38;9.40;;;6.10;;
4353;SDS011;11018;51.258;6.806;2023-04-15T13:04:04;7.97;;;5.40;;
4353;SDS011;11018;51.258;6.806;2023-04-15T13:06:30;7.47;;;5.90;;
4353;SDS011;11018;51.258;6.806;2023-04-15T13:08:57;7.15;;;6.18;;
4353;SDS011;11018;51.258;6.806;2023-04-15T13:11:27;8.45;;;5.97;;
4353;SDS011;11018;51.258;6.806;2023-04-15T13:13:55;6.88;;;5.10;;
4353;SDS011;11018;51.258;6.806;2023-04-15T13:16:27;11.05;;;7.95;;
4353;SDS011;11018;51.258;6.806;2023-04-15T13:18:53;10.60;;;7.40;;
4353;SDS011;11018;51.258;6.806;2023-04-15T13:21:18;10.23;;;7.93;;
4353;SDS011;11018;51.258;6.806;2023-04-15T13:23:44;8.48;;;5.25;;
4353;SDS011;11018;51.258;6.806;2023-04-15T13:26:10;8.98;;;5.38;;
4353;SDS011;11018;51.258;6.806;2023-04-15T13:28:36;7.00;;;5.30;;
4353;SDS011;11018;51.258;6.806;2023-04-15T13:31:02;6.80;;;4.43;;
4353;SDS011;11018;51.258;6.806;2023-04-15T13:33:27;5.00;;;4.20;;
4353;SDS011;11018;51.258;6.806;2023-04-15T13:35:53;4.17;;;3.60;;
4353;SDS011;11018;51.258;6.806;2023-04-15T13:38:18;6.65;;;4.03;;
4353;SDS011;11018;51.258;6.806;2023-04-15T13:40:44;6.43;;;5.35;;
4353;SDS011;11018;51.258;6.806;2023-04-15T13:43:10;7.40;;;4.95;;
4353;SDS011;11018;51.258;6.806;2023-04-15T13:45:36;10.15;;;5.22;;
4353;SDS011;11018;51.258;6.806;2023-04-15T13:48:02;9.20;;;4.83;;
4353;SDS011;11018;51.258;6.806;2023-04-15T13:50:27;7.15;;;4.38;;
4353;SDS011;11018;51.258;6.806;2023-04-15T13:52:53;6.65;;;4.82;;
4353;SDS011;11018;51.258;6.806;2023-04-15T13:55:19;9.13;;;5.30;;
4353;SDS011;11018;51.258;6.806;2023-04-15T13:57:44;8.77;;;5.30;;
4353;SDS011;11018;51.258;6.806;2023-04-15T14:00:10;10.10;;;4.63;;
4353;SDS011;11018;51.258;6.806;2023-04-15T14:02:36;8.20;;;5.43;;
4353;SDS011;11018;51.258;6.806;2023-04-15T14:05:02;7.43;;;4.90;;
4353;SDS011;11018;51.258;6.806;2023-04-15T14:07:28;8.07;;;6.10;;
4353;SDS011;11018;51.258;6.806;2023-04-15T14:09:55;9.90;;;6.20;;
4353;SDS011;11018;51.258;6.806;2023-04-15T14:12:20;6.18;;;5.15;;
4353;SDS011;11018;51.258;6.806;2023-04-15T14:14:46;6.50;;;5.80;;
4353;SDS011;11018;51.258;6.806;2023-04-15T14:17:12;7.90;;;4.93;;
4353;SDS011;11018;51.258;6.806;2023-04-15T14:19:37;5.77;;;4.20;;
4353;SDS011;11018;51.258;6.806;2023-04-15T14:22:03;7.45;;;4.30;;
4353;SDS011;11018;51.258;6.806;2023-04-15T14:24:29;9.13;;;6.50;;
4353;SDS011;11018;51.258;6.806;2023-04-15T14:26:54;9.68;;;6.13;;
4353;SDS011;11018;51.258;6.806;2023-04-15T14:29:21;9.52;;;5.28;;
4353;SDS011;11018;51.258;6.806;2023-04-15T14:31:47;8.07;;;5.03;;
4353;SDS011;11018;51.258;6.806;2023-04-15T14:34:13;6.25;;;4.00;;
4353;SDS011;11018;51.258;6.806;2023-04-15T14:36:39;6.47;;;4.30;;
4353;SDS011;11018;51.258;6.806;2023-04-15T14:39:06;6.93;;;4.55;;
4353;SDS011;11018;51.258;6.806;2023-04-15T14:41:32;9.25;;;5.47;;
4353;SDS011;11018;51.258;6.806;2023-04-15T14:43:58;7.63;;;5.05;;
4353;SDS011;11018;51.258;6.806;2023-04-15T14:46:24;6.97;;;4.40;;
4353;SDS011;11018;51.258;6.806;2023-04-15T14:48:50;9.20;;;5.72;;
4353;SDS011;11018;51.258;6.806;2023-04-15T14:51:15;14.38;;;6.32;;
4353;SDS011;11018;51.258;6.806;2023-04-15T14:53:41;9.95;;;6.32;;
4353;SDS011;11018;51.258;6.806;2023-04-15T14:56:07;7.60;;;5.53;;
4353;SDS011;11018;51.258;6.806;2023-04-15T14:58:33;6.85;;;5.68;;
4353;SDS011;11018;51.258;6.806;2023-04-15T15:00:59;9.63;;;6.35;;
4353;SDS011;11018;51.258;6.806;2023-04-15T15:03:26;7.45;;;6.00;;